<?xml version='1.0' encoding='UTF-8'?><gpx version="1.1" creator="JPX - https://github.com/jenetics/jpx" xmlns="http://www.topografix.com/GPX/1/1"><trk><trkseg><trkpt lat="44.728690611816354" lon="8.941728722824314"><ele>290.25</ele><time>2026-03-29T08:57:16Z</time></trkpt><trkpt lat="44.728777618211836" lon="8.94165493515411"><ele>290.5</ele><time>2026-03-29T08:57:18Z</time></trkpt><trkpt lat="44.72892799967863" lon="8.941630703643675"><ele>290.75</ele><time>2026-03-29T08:57:20Z</time></trkpt><trkpt lat="44.729045849648266" lon="8.941596294602814"><ele>291.0</ele><time>2026-03-29T08:57:21Z</time></trkpt><trkpt lat="44.72918065537831" lon="8.941578764697809"><ele>291.0</ele><time>2026-03-29T08:57:22Z</time></trkpt><trkpt lat="44.72931783221366" lon="8.941539427386267"><ele>291.0</ele><time>2026-03-29T08:57:23Z</time></trkpt><trkpt lat="44.72944564201552" lon="8.941502776171719"><ele>291.0</ele><time>2026-03-29T08:57:24Z</time></trkpt><trkpt lat="44.72956584837079" lon="8.941449650212231"><ele>291.0</ele><time>2026-03-29T08:57:25Z</time></trkpt><trkpt lat="44.729683874273405" lon="8.941429818032525"><ele>291.3333333333333</ele><time>2026-03-29T08:57:26Z</time></trkpt><trkpt lat="44.72977554620328" lon="8.941399928930144"><ele>291.6666666666667</ele><time>2026-03-29T08:57:27Z</time></trkpt><trkpt lat="44.729859938311215" lon="8.941381150167908"><ele>292.0</ele><time>2026-03-29T08:57:28Z</time></trkpt><trkpt lat="44.72994220114656" lon="8.94135890138279"><ele>292.33333333333337</ele><time>2026-03-29T08:57:29Z</time></trkpt><trkpt lat="44.73001738343443" lon="8.941341625094502"><ele>292.6666666666667</ele><time>2026-03-29T08:57:30Z</time></trkpt><trkpt lat="44.73007752600648" lon="8.941307850444316"><ele>293.0</ele><time>2026-03-29T08:57:32Z</time></trkpt><trkpt lat="44.73007367776436" lon="8.941114487933538"><ele>293.0</ele><time>2026-03-29T08:57:37Z</time></trkpt><trkpt lat="44.73003636413621" lon="8.940978269965505"><ele>293.0</ele><time>2026-03-29T08:57:38Z</time></trkpt><trkpt lat="44.72999976236153" lon="8.940807229721552"><ele>293.0</ele><time>2026-03-29T08:57:39Z</time></trkpt><trkpt lat="44.72995496981478" lon="8.940606151235814"><ele>293.0</ele><time>2026-03-29T08:57:40Z</time></trkpt><trkpt lat="44.72992616142488" lon="8.940448744899633"><ele>292.8</ele><time>2026-03-29T08:57:41Z</time></trkpt><trkpt lat="44.72988485220074" lon="8.940311001687057"><ele>292.6</ele><time>2026-03-29T08:57:42Z</time></trkpt><trkpt lat="44.729852259565924" lon="8.940197318972473"><ele>292.4</ele><time>2026-03-29T08:57:43Z</time></trkpt><trkpt lat="44.729834823366886" lon="8.940096257690243"><ele>292.2</ele><time>2026-03-29T08:57:45Z</time></trkpt><trkpt lat="44.72998811183298" lon="8.940127879604397"><ele>292.0</ele><time>2026-03-29T08:57:47Z</time></trkpt><trkpt lat="44.73008810168274" lon="8.940095331047722"><ele>292.0</ele><time>2026-03-29T08:57:48Z</time></trkpt><trkpt lat="44.730161658805926" lon="8.9400778732563"><ele>292.0</ele><time>2026-03-29T08:57:49Z</time></trkpt><trkpt lat="44.73023148161697" lon="8.940048680945726"><ele>292.0</ele><time>2026-03-29T08:57:51Z</time></trkpt><trkpt lat="44.73021406501022" lon="8.939748040602893"><ele>292.0</ele><time>2026-03-29T08:57:52Z</time></trkpt><trkpt lat="44.730190720788045" lon="8.939564822852736"><ele>292.25</ele><time>2026-03-29T08:57:53Z</time></trkpt><trkpt lat="44.73016387343578" lon="8.93936419417683"><ele>292.5</ele><time>2026-03-29T08:57:54.001Z</time></trkpt><trkpt lat="44.73013289272568" lon="8.939146748536993"><ele>292.75</ele><time>2026-03-29T08:57:55.001Z</time></trkpt><trkpt lat="44.73011566523976" lon="8.938968846841284"><ele>293.0</ele><time>2026-03-29T08:57:56.001Z</time></trkpt><trkpt lat="44.73011285306073" lon="8.938811107933086"><ele>292.6</ele><time>2026-03-29T08:57:57.001Z</time></trkpt><trkpt lat="44.73008334904673" lon="8.938666335232334"><ele>292.20000000000005</ele><time>2026-03-29T08:57:58.001Z</time></trkpt><trkpt lat="44.73007515143631" lon="8.938535013649954"><ele>291.8</ele><time>2026-03-29T08:57:59.001Z</time></trkpt><trkpt lat="44.73005956437801" lon="8.938406441892313"><ele>291.40000000000003</ele><time>2026-03-29T08:58:00.001Z</time></trkpt><trkpt lat="44.73006240632965" lon="8.938268101128667"><ele>291.0</ele><time>2026-03-29T08:58:01.001Z</time></trkpt><trkpt lat="44.73005581022933" lon="8.938163079798445"><ele>290.0</ele><time>2026-03-29T08:58:02.001Z</time></trkpt><trkpt lat="44.73006721995395" lon="8.93805890169266"><ele>289.0</ele><time>2026-03-29T08:58:09.001Z</time></trkpt><trkpt lat="44.730068935914126" lon="8.937966700217281"><ele>288.0</ele><time>2026-03-29T08:58:10.001Z</time></trkpt><trkpt lat="44.73004207297097" lon="8.93784346767523"><ele>287.0</ele><time>2026-03-29T08:58:11.001Z</time></trkpt><trkpt lat="44.72993135028959" lon="8.937694587767043"><ele>286.0</ele><time>2026-03-29T08:58:12.001Z</time></trkpt><trkpt lat="44.729824912050184" lon="8.93752444798738"><ele>285.66666666666663</ele><time>2026-03-29T08:58:13.001Z</time></trkpt><trkpt lat="44.72970743486274" lon="8.937303883967827"><ele>285.3333333333333</ele><time>2026-03-29T08:58:14Z</time></trkpt><trkpt lat="44.72960321275415" lon="8.937105436034116"><ele>285.0</ele><time>2026-03-29T08:58:15Z</time></trkpt><trkpt lat="44.72951203465754" lon="8.93693500770007"><ele>285.0</ele><time>2026-03-29T08:58:16Z</time></trkpt><trkpt lat="44.72942513618919" lon="8.936771471623128"><ele>285.0</ele><time>2026-03-29T08:58:17Z</time></trkpt><trkpt lat="44.72933533955549" lon="8.93660683657169"><ele>285.0</ele><time>2026-03-29T08:58:18Z</time></trkpt><trkpt lat="44.72924284874947" lon="8.93641513614156"><ele>285.3333333333333</ele><time>2026-03-29T08:58:19Z</time></trkpt><trkpt lat="44.7291238536549" lon="8.93619821747829"><ele>285.66666666666663</ele><time>2026-03-29T08:58:20Z</time></trkpt><trkpt lat="44.72900616419416" lon="8.935977241702448"><ele>286.0</ele><time>2026-03-29T08:58:21Z</time></trkpt><trkpt lat="44.72890325964229" lon="8.935783128791707"><ele>285.75</ele><time>2026-03-29T08:58:22Z</time></trkpt><trkpt lat="44.728806222240756" lon="8.935595297042298"><ele>285.5</ele><time>2026-03-29T08:58:23Z</time></trkpt><trkpt lat="44.72871735612943" lon="8.935426571855956"><ele>285.25</ele><time>2026-03-29T08:58:24Z</time></trkpt><trkpt lat="44.728633895015605" lon="8.935278969000027"><ele>285.0</ele><time>2026-03-29T08:58:25Z</time></trkpt><trkpt lat="44.72855834149947" lon="8.935135410150297"><ele>285.0</ele><time>2026-03-29T08:58:26Z</time></trkpt><trkpt lat="44.72848949758769" lon="8.935001525964763"><ele>285.0</ele><time>2026-03-29T08:58:27Z</time></trkpt><trkpt lat="44.728423337305586" lon="8.934876310229512"><ele>285.0</ele><time>2026-03-29T08:58:28Z</time></trkpt><trkpt lat="44.728396709952435" lon="8.934765390596365"><ele>285.0</ele><time>2026-03-29T08:58:29Z</time></trkpt><trkpt lat="44.7283942220738" lon="8.934659376405957"><ele>285.0</ele><time>2026-03-29T08:58:30Z</time></trkpt><trkpt lat="44.72849163972814" lon="8.934568621335924"><ele>285.0</ele><time>2026-03-29T08:58:32Z</time></trkpt><trkpt lat="44.728401417093345" lon="8.934475376124764"><ele>285.0</ele><time>2026-03-29T08:58:34Z</time></trkpt><trkpt lat="44.72840763230647" lon="8.93420729141353"><ele>285.0</ele><time>2026-03-29T08:59:39.001Z</time></trkpt><trkpt lat="44.728410833068686" lon="8.934425490825873"><ele>285.0</ele><time>2026-03-29T08:59:42.001Z</time></trkpt></trkseg></trk></gpx>